sensor_id;sensor_type;location;lat;lon;timestamp;P1;durP1;ratioP1;P2;durP2;ratioP2
3735;SDS011;1883;48.202;16.310;2023-04-25T00:01:58;8.93;;;2.97;;
3735;SDS011;1883;48.202;16.310;2023-04-25T00:04:26;8.50;;;2.47;;
3735;SDS011;1883;48.202;16.310;2023-04-25T00:06:54;14.53;;;3.10;;
3735;SDS011;1883;48.202;16.310;2023-04-25T00:09:22;9.83;;;2.97;;
3735;SDS011;1883;48.202;16.310;2023-04-25T00:11:49;9.03;;;2.80;;
3735;SDS011;1883;48.202;16.310;2023-04-25T00:14:16;9.60;;;3.10;;
3735;SDS011;1883;48.202;16.310;2023-04-25T00:16:43;8.33;;;2.90;;
3735;SDS011;1883;48.202;16.310;2023-04-25T00:19:11;8.80;;;2.83;;
3735;SDS011;1883;48.202;16.310;2023-04-25T00:21:39;12.60;;;3.67;;
3735;SDS011;1883;48.202;16.310;2023-04-25T00:24:06;15.00;;;3.20;;
3735;SDS011;1883;48.202;16.310;2023-04-25T00:26:34;7.63;;;2.67;;
3735;SDS011;1883;48.202;16.310;2023-04-25T00:29:02;7.57;;;2.73;;
3735;SDS011;1883;48.202;16.310;2023-04-25T00:31:32;8.83;;;2.50;;
3735;SDS011;1883;48.202;16.310;2023-04-25T00:33:59;9.70;;;3.10;;
3735;SDS011;1883;48.202;16.310;2023-04-25T00:36:28;11.80;;;2.63;;
3735;SDS011;1883;48.202;16.310;2023-04-25T00:38:55;12.60;;;3.20;;
3735;SDS011;1883;48.202;16.310;2023-04-25T00:41:25;11.30;;;2.60;;
3735;SDS011;1883;48.202;16.310;2023-04-25T00:43:53;8.40;;;2.40;;
3735;SDS011;1883;48.202;16.310;2023-04-25T00:46:21;9.67;;;2.63;;
3735;SDS011;1883;48.202;16.310;2023-04-25T00:48:49;10.87;;;2.40;;
3735;SDS011;1883;48.202;16.310;2023-04-25T00:51:18;18.70;;;3.20;;
3735;SDS011;1883;48.202;16.310;2023-04-25T00:53:48;8.43;;;2.70;;
3735;SDS011;1883;48.202;16.310;2023-04-25T00:56:16;8.67;;;2.43;;
3735;SDS011;1883;48.202;16.310;2023-04-25T00:58:45;8.23;;;2.87;;
3735;SDS011;1883;48.202;16.310;2023-04-25T01:01:12;10.17;;;3.03;;
3735;SDS011;1883;48.202;16.310;2023-04-25T01:03:40;16.53;;;3.00;;
3735;SDS011;1883;48.202;16.310;2023-04-25T01:06:08;9.93;;;3.10;;
3735;SDS011;1883;48.202;16.310;2023-04-25T01:08:36;9.60;;;3.27;;
3735;SDS011;1883;48.202;16.310;2023-04-25T01:11:06;21.20;;;3.17;;
3735;SDS011;1883;48.202;16.310;2023-04-25T01:13:34;10.17;;;2.77;;
3735;SDS011;1883;48.202;16.310;2023-04-25T01:16:02;8.83;;;2.83;;
3735;SDS011;1883;48.202;16.310;2023-04-25T01:18:30;9.17;;;2.70;;
3735;SDS011;1883;48.202;16.310;2023-04-25T01:23:30;7.60;;;2.30;;
3735;SDS011;1883;48.202;16.310;2023-04-25T01:25:58;10.00;;;2.73;;
3735;SDS011;1883;48.202;16.310;2023-04-25T01:28:28;8.63;;;3.50;;
3735;SDS011;1883;48.202;16.310;2023-04-25T01:30:56;13.90;;;2.83;;
3735;SDS011;1883;48.202;16.310;2023-04-25T01:33:23;10.33;;;3.70;;
3735;SDS011;1883;48.202;16.310;2023-04-25T01:35:53;12.43;;;3.87;;
3735;SDS011;1883;48.202;16.310;2023-04-25T01:38:22;15.17;;;3.87;;
3735;SDS011;1883;48.202;16.310;2023-04-25T01:40:51;10.77;;;3.13;;
3735;SDS011;1883;48.202;16.310;2023-04-25T01:43:20;11.37;;;2.77;;
3735;SDS011;1883;48.202;16.310;2023-04-25T01:45:47;9.83;;;3.67;;
3735;SDS011;1883;48.202;16.310;2023-04-25T01:48:18;7.60;;;2.60;;
3735;SDS011;1883;48.202;16.310;2023-04-25T01:50:45;9.40;;;2.90;;
3735;SDS011;1883;48.202;16.310;2023-04-25T01:53:12;11.77;;;3.40;;
3735;SDS011;1883;48.202;16.310;2023-04-25T01:55:42;9.07;;;3.00;;
3735;SDS011;1883;48.202;16.310;2023-04-25T01:58:09;10.17;;;3.70;;
3735;SDS011;1883;48.202;16.310;2023-04-25T02:00:38;10.83;;;2.80;;
3735;SDS011;1883;48.202;16.310;2023-04-25T02:03:05;11.00;;;2.40;;
3735;SDS011;1883;48.202;16.310;2023-04-25T02:05:36;10.03;;;3.10;;
3735;SDS011;1883;48.202;16.310;2023-04-25T02:08:04;9.37;;;3.43;;
3735;SDS011;1883;48.202;16.310;2023-04-25T02:10:32;9.07;;;3.23;;
3735;SDS011;1883;48.202;16.310;2023-04-25T02:13:01;12.77;;;3.20;;
3735;SDS011;1883;48.202;16.310;2023-04-25T02:15:28;10.30;;;3.13;;
3735;SDS011;1883;48.202;16.310;2023-04-25T02:17:55;12.40;;;3.10;;
3735;SDS011;1883;48.202;16.310;2023-04-25T02:20:23;11.63;;;4.10;;
3735;SDS011;1883;48.202;16.310;2023-04-25T02:22:51;10.60;;;2.70;;
3735;SDS011;1883;48.202;16.310;2023-04-25T02:25:18;9.07;;;2.90;;
3735;SDS011;1883;48.202;16.310;2023-04-25T02:27:45;11.10;;;3.03;;
3735;SDS011;1883;48.202;16.310;2023-04-25T02:30:14;10.50;;;3.70;;
3735;SDS011;1883;48.202;16.310;2023-04-25T02:32:41;11.40;;;3.60;;
3735;SDS011;1883;48.202;16.310;2023-04-25T02:35:08;11.93;;;4.00;;
3735;SDS011;1883;48.202;16.310;2023-04-25T02:37:36;13.20;;;3.90;;
3735;SDS011;1883;48.202;16.310;2023-04-25T02:40:05;10.63;;;3.13;;
3735;SDS011;1883;48.202;16.310;2023-04-25T02:42:33;9.30;;;3.37;;
3735;SDS011;1883;48.202;16.310;2023-04-25T02:45:10;9.70;;;3.50;;
3735;SDS011;1883;48.202;16.310;2023-04-25T02:47:40;15.73;;;3.23;;
3735;SDS011;1883;48.202;16.310;2023-04-25T02:50:08;10.00;;;3.90;;
3735;SDS011;1883;48.202;16.310;2023-04-25T02:52:35;19.77;;;4.13;;
3735;SDS011;1883;48.202;16.310;2023-04-25T02:55:05;9.53;;;3.53;;
3735;SDS011;1883;48.202;16.310;2023-04-25T02:57:33;10.57;;;4.00;;
3735;SDS011;1883;48.202;16.310;2023-04-25T03:00:01;10.20;;;3.70;;
3735;SDS011;1883;48.202;16.310;2023-04-25T03:02:29;12.43;;;3.87;;
3735;SDS011;1883;48.202;16.310;2023-04-25T03:05:17;10.13;;;3.87;;
3735;SDS011;1883;48.202;16.310;2023-04-25T03:07:44;10.67;;;3.80;;
3735;SDS011;1883;48.202;16.310;2023-04-25T03:10:12;8.90;;;3.30;;
3735;SDS011;1883;48.202;16.310;2023-04-25T03:12:41;9.60;;;3.60;;
3735;SDS011;1883;48.202;16.310;2023-04-25T03:15:15;10.60;;;3.77;;
3735;SDS011;1883;48.202;16.310;2023-04-25T03:17:43;10.70;;;3.83;;
3735;SDS011;1883;48.202;16.310;2023-04-25T03:20:23;10.37;;;3.60;;
3735;SDS011;1883;48.202;16.310;2023-04-25T03:22:50;10.07;;;3.53;;
3735;SDS011;1883;48.202;16.310;2023-04-25T03:25:17;12.50;;;3.60;;
3735;SDS011;1883;48.202;16.310;2023-04-25T03:27:44;13.00;;;4.77;;
3735;SDS011;1883;48.202;16.310;2023-04-25T03:30:11;20.93;;;3.67;;
3735;SDS011;1883;48.202;16.310;2023-04-25T03:32:38;16.17;;;3.77;;
3735;SDS011;1883;48.202;16.310;2023-04-25T03:35:13;10.93;;;3.93;;
3735;SDS011;1883;48.202;16.310;2023-04-25T03:37:44;9.33;;;3.63;;
3735;SDS011;1883;48.202;16.310;2023-04-25T03:40:11;12.90;;;4.10;;
3735;SDS011;1883;48.202;16.310;2023-04-25T03:42:38;13.70;;;5.43;;
3735;SDS011;1883;48.202;16.310;2023-04-25T03:45:06;10.53;;;3.30;;
3735;SDS011;1883;48.202;16.310;2023-04-25T03:47:33;21.00;;;6.23;;
3735;SDS011;1883;48.202;16.310;2023-04-25T03:50:00;11.77;;;3.50;;
3735;SDS011;1883;48.202;16.310;2023-04-25T03:52:28;13.13;;;4.47;;
3735;SDS011;1883;48.202;16.310;2023-04-25T03:54:56;13.10;;;4.23;;
3735;SDS011;1883;48.202;16.310;2023-04-25T03:57:23;10.30;;;4.00;;
3735;SDS011;1883;48.202;16.310;2023-04-25T03:59:50;16.20;;;4.23;;
3735;SDS011;1883;48.202;16.310;2023-04-25T04:02:17;11.27;;;4.40;;
3735;SDS011;1883;48.202;16.310;2023-04-25T04:04:56;14.43;;;4.20;;
3735;SDS011;1883;48.202;16.310;2023-04-25T04:07:39;12.90;;;4.67;;
3735;SDS011;1883;48.202;16.310;2023-04-25T04:13:06;10.43;;;4.27;;
3735;SDS011;1883;48.202;16.310;2023-04-25T04:15:47;13.63;;;3.60;;
3735;SDS011;1883;48.202;16.310;2023-04-25T04:18:17;11.17;;;4.30;;
3735;SDS011;1883;48.202;16.310;2023-04-25T04:21:00;11.17;;;4.10;;
3735;SDS011;1883;48.202;16.310;2023-04-25T04:23:32;11.10;;;4.07;;
3735;SDS011;1883;48.202;16.310;2023-04-25T04:39:15;9.73;;;3.53;;
3735;SDS011;1883;48.202;16.310;2023-04-25T04:41:58;15.93;;;4.90;;
3735;SDS011;1883;48.202;16.310;2023-04-25T04:45:05;12.77;;;4.73;;
3735;SDS011;1883;48.202;16.310;2023-04-25T04:47:47;13.73;;;4.73;;
3735;SDS011;1883;48.202;16.310;2023-04-25T04:50:15;14.23;;;4.07;;
3735;SDS011;1883;48.202;16.310;2023-04-25T04:52:58;11.30;;;4.53;;
3735;SDS011;1883;48.202;16.310;2023-04-25T04:55:42;18.17;;;4.97;;
3735;SDS011;1883;48.202;16.310;2023-04-25T04:58:19;10.90;;;4.70;;
3735;SDS011;1883;48.202;16.310;2023-04-25T05:01:02;13.50;;;5.00;;
3735;SDS011;1883;48.202;16.310;2023-04-25T05:03:34;13.93;;;5.67;;
3735;SDS011;1883;48.202;16.310;2023-04-25T05:06:16;11.93;;;4.97;;
3735;SDS011;1883;48.202;16.310;2023-04-25T05:09:17;14.17;;;5.17;;
3735;SDS011;1883;48.202;16.310;2023-04-25T06:49:30;11.70;;;4.27;;
3735;SDS011;1883;48.202;16.310;2023-04-25T06:52:12;9.83;;;3.20;;
3735;SDS011;1883;48.202;16.310;2023-04-25T06:55:10;8.10;;;2.23;;
3735;SDS011;1883;48.202;16.310;2023-04-25T06:57:51;14.97;;;3.57;;
3735;SDS011;1883;48.202;16.310;2023-04-25T07:00:45;10.80;;;3.90;;
3735;SDS011;1883;48.202;16.310;2023-04-25T11:34:52;16.70;;;2.40;;
3735;SDS011;1883;48.202;16.310;2023-04-25T11:37:23;9.00;;;2.00;;
3735;SDS011;1883;48.202;16.310;2023-04-25T11:40:06;11.20;;;2.90;;
3735;SDS011;1883;48.202;16.310;2023-04-25T11:42:37;11.37;;;2.80;;
3735;SDS011;1883;48.202;16.310;2023-04-25T11:45:13;11.37;;;3.00;;
3735;SDS011;1883;48.202;16.310;2023-04-25T11:47:56;10.63;;;3.63;;
3735;SDS011;1883;48.202;16.310;2023-04-25T11:50:40;11.80;;;4.07;;
3735;SDS011;1883;48.202;16.310;2023-04-25T11:53:21;8.33;;;3.13;;
3735;SDS011;1883;48.202;16.310;2023-04-25T11:55:49;19.70;;;5.20;;
3735;SDS011;1883;48.202;16.310;2023-04-25T11:58:18;14.20;;;5.23;;
3735;SDS011;1883;48.202;16.310;2023-04-25T12:01:01;10.20;;;4.20;;
3735;SDS011;1883;48.202;16.310;2023-04-25T12:03:45;14.10;;;4.07;;
3735;SDS011;1883;48.202;16.310;2023-04-25T12:12:09;9.20;;;3.20;;
3735;SDS011;1883;48.202;16.310;2023-04-25T12:14:46;13.93;;;3.03;;
3735;SDS011;1883;48.202;16.310;2023-04-25T12:17:14;13.67;;;2.50;;
3735;SDS011;1883;48.202;16.310;2023-04-25T12:19:43;8.80;;;2.70;;
3735;SDS011;1883;48.202;16.310;2023-04-25T12:22:19;9.57;;;2.13;;
3735;SDS011;1883;48.202;16.310;2023-04-25T12:24:50;11.73;;;2.30;;
3735;SDS011;1883;48.202;16.310;2023-04-25T12:27:18;10.07;;;2.67;;
3735;SDS011;1883;48.202;16.310;2023-04-25T12:29:50;10.60;;;2.53;;
3735;SDS011;1883;48.202;16.310;2023-04-25T12:32:18;8.87;;;2.23;;
3735;SDS011;1883;48.202;16.310;2023-04-25T12:34:45;7.43;;;2.10;;
3735;SDS011;1883;48.202;16.310;2023-04-25T12:37:12;9.57;;;1.87;;
3735;SDS011;1883;48.202;16.310;2023-04-25T12:39:40;8.07;;;1.80;;
3735;SDS011;1883;48.202;16.310;2023-04-25T12:42:09;6.97;;;1.67;;
3735;SDS011;1883;48.202;16.310;2023-04-25T12:44:37;7.20;;;1.87;;
3735;SDS011;1883;48.202;16.310;2023-04-25T12:47:05;7.57;;;1.47;;
3735;SDS011;1883;48.202;16.310;2023-04-25T12:49:32;5.90;;;1.20;;
3735;SDS011;1883;48.202;16.310;2023-04-25T12:51:59;6.97;;;1.50;;
3735;SDS011;1883;48.202;16.310;2023-04-25T12:54:26;6.10;;;1.60;;
3735;SDS011;1883;48.202;16.310;2023-04-25T12:56:53;10.87;;;1.73;;
3735;SDS011;1883;48.202;16.310;2023-04-25T12:59:22;7.40;;;2.17;;
3735;SDS011;1883;48.202;16.310;2023-04-25T13:01:49;7.37;;;2.17;;
3735;SDS011;1883;48.202;16.310;2023-04-25T13:04:16;10.07;;;2.03;;
3735;SDS011;1883;48.202;16.310;2023-04-25T13:06:45;12.30;;;3.83;;
3735;SDS011;1883;48.202;16.310;2023-04-25T13:09:12;11.73;;;2.77;;
3735;SDS011;1883;48.202;16.310;2023-04-25T13:11:43;8.70;;;1.80;;
3735;SDS011;1883;48.202;16.310;2023-04-25T13:14:11;7.20;;;1.50;;
3735;SDS011;1883;48.202;16.310;2023-04-25T13:16:41;9.80;;;1.33;;
3735;SDS011;1883;48.202;16.310;2023-04-25T13:19:08;6.33;;;1.20;;
3735;SDS011;1883;48.202;16.310;2023-04-25T13:21:36;8.60;;;1.23;;
3735;SDS011;1883;48.202;16.310;2023-04-25T13:24:03;8.43;;;1.50;;
3735;SDS011;1883;48.202;16.310;2023-04-25T13:26:33;13.13;;;1.50;;
3735;SDS011;1883;48.202;16.310;2023-04-25T13:29:01;7.10;;;1.17;;
3735;SDS011;1883;48.202;16.310;2023-04-25T13:31:33;6.70;;;1.47;;
3735;SDS011;1883;48.202;16.310;2023-04-25T13:37:41;5.80;;;1.07;;
3735;SDS011;1883;48.202;16.310;2023-04-25T13:40:16;14.10;;;1.40;;
3735;SDS011;1883;48.202;16.310;2023-04-25T13:43:00;8.40;;;0.90;;
3735;SDS011;1883;48.202;16.310;2023-04-25T13:45:44;6.70;;;1.00;;
3735;SDS011;1883;48.202;16.310;2023-04-25T13:49:06;8.60;;;1.10;;
3735;SDS011;1883;48.202;16.310;2023-04-25T13:51:53;8.50;;;1.90;;
3735;SDS011;1883;48.202;16.310;2023-04-25T22:52:30;8.73;;;3.50;;
3735;SDS011;1883;48.202;16.310;2023-04-25T22:55:14;8.13;;;3.00;;
3735;SDS011;1883;48.202;16.310;2023-04-25T22:57:55;11.90;;;4.50;;
3735;SDS011;1883;48.202;16.310;2023-04-25T23:00:26;12.60;;;3.43;;
3735;SDS011;1883;48.202;16.310;2023-04-25T23:03:29;10.20;;;3.90;;
3735;SDS011;1883;48.202;16.310;2023-04-25T23:06:12;11.93;;;4.57;;
3735;SDS011;1883;48.202;16.310;2023-04-25T23:11:41;10.13;;;3.83;;
3735;SDS011;1883;48.202;16.310;2023-04-25T23:14:23;10.10;;;3.40;;
3735;SDS011;1883;48.202;16.310;2023-04-25T23:17:06;16.80;;;6.00;;
3735;SDS011;1883;48.202;16.310;2023-04-25T23:19:50;15.30;;;5.80;;
3735;SDS011;1883;48.202;16.310;2023-04-25T23:22:33;16.77;;;7.13;;
3735;SDS011;1883;48.202;16.310;2023-04-25T23:25:19;17.07;;;6.60;;
3735;SDS011;1883;48.202;16.310;2023-04-25T23:28:00;22.10;;;6.23;;
3735;SDS011;1883;48.202;16.310;2023-04-25T23:30:42;15.23;;;5.40;;
3735;SDS011;1883;48.202;16.310;2023-04-25T23:33:26;13.70;;;5.80;;
3735;SDS011;1883;48.202;16.310;2023-04-25T23:36:07;23.40;;;7.20;;
3735;SDS011;1883;48.202;16.310;2023-04-25T23:38:44;13.67;;;4.63;;
3735;SDS011;1883;48.202;16.310;2023-04-25T23:41:28;23.67;;;7.10;;
3735;SDS011;1883;48.202;16.310;2023-04-25T23:44:16;13.40;;;6.00;;
3735;SDS011;1883;48.202;16.310;2023-04-25T23:46:43;16.33;;;4.80;;
3735;SDS011;1883;48.202;16.310;2023-04-25T23:49:10;16.00;;;5.70;;
3735;SDS011;1883;48.202;16.310;2023-04-25T23:51:37;14.90;;;5.93;;
3735;SDS011;1883;48.202;16.310;2023-04-25T23:54:04;17.90;;;6.80;;
3735;SDS011;1883;48.202;16.310;2023-04-25T23:56:32;22.47;;;6.83;;
3735;SDS011;1883;48.202;16.310;2023-04-25T23:58:59;16.80;;;7.73;;
